Time;durP1;ratioP1;P1;durP2;ratioP2;P2;SDS_P1;SDS_P2;PMS_P1;PMS_P2;Temp;Humidity;BMP_temperature;BMP_pressure;BME280_temperature;BME280_humidity;BME280_pressure;Samples;Min_cycle;Max_cycle;Signal;HPM_P1;HPM_P2
2020/12/13 00:00:32;;;;;;;41.17;23.50;;;;;;;4.89;100.00;99887.84;5051719;28;20816;-72
2020/12/13 00:02:58;;;;;;;42.00;24.07;;;;;;;4.98;100.00;99895.22;5035935;28;20221;-73
2020/12/13 00:05:26;;;;;;;43.40;23.77;;;;;;;4.98;100.00;99887.97;5037703;28;20219;-72
2020/12/13 00:07:55;;;;;;;42.00;23.43;;;;;;;5.05;100.00;99890.44;5038262;28;20343;-72
2020/12/13 00:10:23;;;;;;;39.70;23.43;;;;;;;4.92;100.00;99887.34;5070720;28;20220;-72
2020/12/13 00:12:49;;;;;;;43.30;23.43;;;;;;;5.01;100.00;99898.19;5071662;28;20175;-72
2020/12/13 00:15:15;;;;;;;43.47;23.80;;;;;;;4.78;100.00;99899.56;5051179;28;20179;-72
2020/12/13 00:17:40;;;;;;;43.03;24.33;;;;;;;4.88;100.00;99897.00;5066479;28;20698;-72
2020/12/13 00:20:06;;;;;;;41.37;23.13;;;;;;;4.97;100.00;99899.78;5074741;28;20205;-72
2020/12/13 00:22:32;;;;;;;43.37;23.43;;;;;;;4.95;100.00;99897.63;5057691;28;20230;-72
2020/12/13 00:24:57;;;;;;;41.77;23.13;;;;;;;4.98;100.00;99906.81;5091388;28;20553;-71
2020/12/13 00:27:23;;;;;;;41.63;22.57;;;;;;;4.98;100.00;99895.22;5073515;28;20222;-72
2020/12/13 00:29:49;;;;;;;40.20;22.60;;;;;;;4.97;100.00;99900.88;5057495;28;20217;-72
2020/12/13 00:32:14;;;;;;;40.80;23.13;;;;;;;4.86;100.00;99910.69;5056369;28;20207;-72
2020/12/13 00:34:42;;;;;;;44.57;23.13;;;;;;;4.86;100.00;99909.91;5072676;28;20179;-73
2020/12/13 00:37:10;;;;;;;40.97;23.10;;;;;;;5.02;100.00;99909.81;5073669;28;20229;-73
2020/12/13 00:39:38;;;;;;;39.77;22.17;;;;;;;5.01;100.00;99911.66;5074005;28;20199;-72
2020/12/13 00:42:04;;;;;;;41.07;22.60;;;;;;;4.97;100.00;99911.63;5071922;28;20226;-73
2020/12/13 00:44:32;;;;;;;39.67;23.07;;;;;;;5.06;100.00;99917.09;5054416;28;20191;-72
2020/12/13 00:46:57;;;;;;;39.60;22.93;;;;;;;4.93;100.00;99921.25;5049520;28;20601;-71
2020/12/13 00:49:23;;;;;;;38.63;22.70;;;;;;;4.79;100.00;99925.41;5090761;28;20213;-72
2020/12/13 00:51:49;;;;;;;42.87;23.00;;;;;;;4.76;100.00;99923.22;5073679;28;20228;-72
2020/12/13 00:54:15;;;;;;;39.93;23.23;;;;;;;4.88;100.00;99924.72;5074368;28;20182;-72
2020/12/13 00:56:44;;;;;;;43.43;23.03;;;;;;;4.91;100.00;99923.38;5073655;28;20276;-72
2020/12/13 00:59:13;;;;;;;42.03;23.07;;;;;;;5.03;100.00;99930.25;5075306;28;20209;-72
2020/12/13 01:01:38;;;;;;;39.20;22.73;;;;;;;4.97;100.00;99928.56;5059941;28;20215;-72
2020/12/13 01:04:04;;;;;;;40.93;23.37;;;;;;;5.02;100.00;99936.72;5053996;28;20209;-71
2020/12/13 01:06:30;;;;;;;42.97;23.13;;;;;;;5.10;100.00;99937.03;5070012;28;20211;-73
2020/12/13 01:08:56;;;;;;;44.83;23.40;;;;;;;4.92;100.00;99936.59;5070592;28;20703;-72
2020/12/13 01:11:28;;;;;;;41.27;23.17;;;;;;;4.90;100.00;99937.91;5070482;28;20733;-73
2020/12/13 01:13:54;;;;;;;37.67;21.90;;;;;;;4.98;100.00;99936.41;5054400;28;20265;-72
2020/12/13 01:16:22;;;;;;;38.07;21.97;;;;;;;4.96;100.00;99936.91;5065477;28;20312;-72
2020/12/13 01:18:48;;;;;;;42.03;23.07;;;;;;;4.88;100.00;99932.78;5052247;28;20198;-72
2020/12/13 01:21:22;;;;;;;43.10;23.47;;;;;;;4.96;100.00;99936.91;5089120;28;20330;-72
2020/12/13 01:23:48;;;;;;;40.30;23.00;;;;;;;4.99;100.00;99937.19;5073867;28;20217;-73
2020/12/13 01:26:14;;;;;;;41.33;22.83;;;;;;;5.02;100.00;99931.31;5072307;28;20226;-72
2020/12/13 01:28:40;;;;;;;39.53;22.83;;;;;;;4.89;100.00;99947.88;5073301;28;20202;-72
2020/12/13 01:31:08;;;;;;;43.57;24.40;;;;;;;4.81;100.00;99944.81;5079929;28;20219;-72
2020/12/13 01:33:38;;;;;;;41.97;23.20;;;;;;;4.89;100.00;99947.88;5049929;28;20194;-72
2020/12/13 01:36:06;;;;;;;41.60;22.73;;;;;;;4.83;100.00;99948.06;5016571;28;20688;-72
2020/12/13 01:38:32;;;;;;;41.73;24.07;;;;;;;4.83;100.00;99956.13;5016683;28;20200;-72
2020/12/13 01:40:59;;;;;;;43.07;23.53;;;;;;;4.90;100.00;99956.75;5016790;28;20227;-72
2020/12/13 01:43:25;;;;;;;41.43;23.73;;;;;;;4.91;100.00;99948.44;5050698;28;20294;-72
2020/12/13 01:45:51;;;;;;;41.40;23.60;;;;;;;5.04;100.00;99961.47;5054958;28;20225;-72
2020/12/13 01:48:19;;;;;;;43.43;23.97;;;;;;;5.01;100.00;99951.22;5064561;28;20210;-72
2020/12/13 01:53:18;;;;;;;42.70;23.47;;;;;;;4.83;100.00;99956.13;5089734;28;20179;-72
2020/12/13 01:55:45;;;;;;;41.37;24.03;;;;;;;4.98;100.00;99962.47;5072578;28;20316;-72
2020/12/13 01:58:31;;;;;;;43.83;23.80;;;;;;;4.84;100.00;99961.25;5091587;28;20194;-72
2020/12/13 02:00:58;;;;;;;43.90;23.90;;;;;;;4.93;100.00;99967.81;5067398;28;20217;-72
2020/12/13 02:03:51;;;;;;;39.33;23.30;;;;;;;4.81;100.00;99971.69;5037695;28;20207;-72
2020/12/13 02:06:22;;;;;;;41.67;23.13;;;;;;;4.86;100.00;99975.25;5019131;28;20223;-72
2020/12/13 02:08:49;;;;;;;47.40;24.93;;;;;;;4.76;100.00;99968.94;5053832;28;20793;-72
2020/12/13 02:11:17;;;;;;;39.43;23.10;;;;;;;4.71;100.00;99972.41;5035322;28;20215;-72
2020/12/13 02:13:47;;;;;;;41.77;23.27;;;;;;;4.70;100.00;99976.13;5035931;28;20248;-72
2020/12/13 02:16:13;;;;;;;41.77;23.40;;;;;;;4.78;100.00;99978.41;5043842;28;20636;-72
2020/12/13 02:18:41;;;;;;;44.17;23.77;;;;;;;4.75;100.00;99978.09;5082697;28;20201;-73
2020/12/13 02:21:10;;;;;;;45.30;24.57;;;;;;;4.81;100.00;99982.47;5088716;28;20225;-73
2020/12/13 02:23:37;;;;;;;41.90;23.40;;;;;;;4.77;100.00;99982.16;5089267;28;20217;-73
2020/12/13 02:26:02;;;;;;;40.87;24.17;;;;;;;4.72;100.00;99995.53;5088046;28;20219;-73
2020/12/13 02:28:28;;;;;;;41.40;23.90;;;;;;;4.64;100.00;99995.16;5089264;28;20213;-73
2020/12/13 02:30:56;;;;;;;49.80;26.10;;;;;;;4.90;100.00;99997.09;5063979;28;20219;-73
2020/12/13 02:33:22;;;;;;;45.83;24.00;;;;;;;4.93;100.00;100001.94;5068462;28;20175;-73
2020/12/13 02:35:47;;;;;;;45.10;23.83;;;;;;;4.80;100.00;100010.41;5067722;28;20817;-73
2020/12/13 02:38:16;;;;;;;45.43;24.17;;;;;;;4.92;100.00;99997.66;5052329;28;20179;-71
2020/12/13 02:40:41;;;;;;;51.77;25.20;;;;;;;4.88;100.00;99997.34;5051762;28;20226;-73
2020/12/13 02:43:09;;;;;;;50.50;25.50;;;;;;;4.91;100.00;100004.09;5052625;28;20207;-71
2020/12/13 02:45:37;;;;;;;46.37;25.43;;;;;;;4.89;100.00;100006.22;5077036;28;20205;-73
2020/12/13 02:48:05;;;;;;;54.13;27.13;;;;;;;4.93;100.00;99999.25;5063959;28;20178;-72
2020/12/13 02:50:33;;;;;;;49.70;25.57;;;;;;;4.88;100.00;100002.72;5089302;28;20249;-73
2020/12/13 02:53:01;;;;;;;53.43;26.47;;;;;;;4.82;100.00;100002.94;5072412;28;20631;-73
2020/12/13 02:55:27;;;;;;;49.33;25.67;;;;;;;4.93;100.00;100008.16;5071042;28;20229;-73
2020/12/13 02:57:52;;;;;;;49.47;25.93;;;;;;;4.84;100.00;100008.88;5089097;28;20268;-72
2020/12/13 03:00:18;;;;;;;53.53;26.43;;;;;;;4.90;100.00;100003.28;5068597;28;20717;-73
2020/12/13 03:02:46;;;;;;;49.10;25.70;;;;;;;4.96;100.00;100006.84;5032256;28;20198;-73
2020/12/13 03:05:11;;;;;;;49.83;25.87;;;;;;;4.85;100.00;100010.47;5031087;28;20179;-73
2020/12/13 03:07:39;;;;;;;49.93;26.53;;;;;;;4.90;100.00;100013.22;5032066;28;20183;-72
2020/12/13 03:10:07;;;;;;;49.63;25.33;;;;;;;5.06;100.00;100022.03;5031670;28;20203;-72
2020/12/13 03:12:32;;;;;;;53.80;27.10;;;;;;;5.03;100.00;100017.16;5048446;28;20211;-72
2020/12/13 03:14:58;;;;;;;51.07;25.40;;;;;;;4.95;100.00;100021.38;5040916;28;20226;-72
2020/12/13 03:17:23;;;;;;;46.97;25.07;;;;;;;4.77;100.00;100016.31;5046800;28;20217;-72
2020/12/13 03:19:49;;;;;;;49.27;25.30;;;;;;;4.77;100.00;100019.00;5074030;28;20319;-72
2020/12/13 03:22:15;;;;;;;47.63;25.00;;;;;;;4.75;100.00;100021.13;5090210;28;20222;-72
2020/12/13 03:24:43;;;;;;;50.50;25.90;;;;;;;4.79;100.00;100016.88;5072559;28;20616;-71
2020/12/13 03:27:09;;;;;;;57.17;26.00;;;;;;;4.86;100.00;100012.91;5087884;28;20238;-71
2020/12/13 03:29:34;;;;;;;51.47;26.20;;;;;;;4.89;100.00;100022.34;5071924;28;20690;-72
2020/12/13 03:32:00;;;;;;;49.43;25.70;;;;;;;4.80;100.00;100013.94;5051362;28;20214;-72
2020/12/13 03:34:26;;;;;;;50.00;24.60;;;;;;;4.79;100.00;100017.66;5048255;28;20180;-72
2020/12/13 03:36:54;;;;;;;49.30;25.33;;;;;;;4.93;100.00;100024.31;5031199;28;20290;-72
2020/12/13 03:39:19;;;;;;;49.63;25.40;;;;;;;4.91;100.00;100023.75;5031759;28;20233;-72
2020/12/13 03:41:45;;;;;;;48.93;25.40;;;;;;;4.89;100.00;100031.25;5015916;28;20219;-72
2020/12/13 03:44:13;;;;;;;50.63;25.67;;;;;;;4.98;100.00;100027.88;5035010;28;20294;-72
2020/12/13 03:46:42;;;;;;;50.77;26.23;;;;;;;5.03;100.00;100025.22;5045258;28;20227;-72
2020/12/13 03:49:08;;;;;;;52.10;26.73;;;;;;;5.06;100.00;100030.09;5070251;28;20198;-72
2020/12/13 03:51:35;;;;;;;48.80;24.17;;;;;;;4.75;100.00;100032.69;5078359;28;20277;-72
2020/12/13 03:54:01;;;;;;;47.73;25.00;;;;;;;4.92;100.00;100028.03;5073014;28;20179;-72
2020/12/13 03:56:31;;;;;;;53.83;26.43;;;;;;;4.96;100.00;100044.50;5070668;28;20234;-72
2020/12/13 03:58:59;;;;;;;47.87;25.10;;;;;;;4.83;100.00;100044.88;5072754;28;20213;-72
2020/12/13 04:01:25;;;;;;;51.87;24.97;;;;;;;4.74;100.00;100049.91;5073534;28;20582;-72
2020/12/13 04:03:51;;;;;;;53.03;26.10;;;;;;;4.85;100.00;100053.50;5054694;28;20581;-72
2020/12/13 04:06:19;;;;;;;47.73;24.37;;;;;;;4.78;100.00;100047.50;5054002;28;20769;-72
2020/12/13 04:08:46;;;;;;;55.20;25.27;;;;;;;4.82;100.00;100051.34;5055195;28;20206;-72
2020/12/13 04:11:14;;;;;;;57.63;27.47;;;;;;;4.81;100.00;100052.38;5054066;28;20231;-71
2020/12/13 04:13:40;;;;;;;50.77;25.20;;;;;;;4.92;100.00;100054.94;5071405;28;20170;-72
2020/12/13 04:16:06;;;;;;;55.37;24.93;;;;;;;4.80;100.00;100061.50;5066395;28;20214;-72
2020/12/13 04:18:34;;;;;;;50.93;25.43;;;;;;;4.85;100.00;100053.50;5100742;28;20205;-72
2020/12/13 04:20:59;;;;;;;55.23;26.47;;;;;;;5.00;100.00;100068.78;5056784;28;20265;-72
2020/12/13 04:23:27;;;;;;;55.43;25.60;;;;;;;4.84;100.00;100073.41;5074789;28;20230;-72
2020/12/13 04:25:53;;;;;;;56.13;26.83;;;;;;;4.90;100.00;100067.84;5073834;28;20215;-72
2020/12/13 04:28:18;;;;;;;59.30;26.00;;;;;;;4.87;100.00;100068.34;5091555;28;20206;-73
2020/12/13 04:30:46;;;;;;;55.40;27.07;;;;;;;4.86;100.00;100066.72;5071657;28;20227;-72
2020/12/13 04:33:12;;;;;;;53.43;26.37;;;;;;;4.99;100.00;100072.53;5080769;28;20233;-72
2020/12/13 04:35:38;;;;;;;61.07;26.73;;;;;;;4.87;100.00;100067.53;5061268;28;20226;-71
2020/12/13 04:38:04;;;;;;;60.57;25.60;;;;;;;4.84;100.00;100062.66;5077966;28;20182;-71
2020/12/13 04:40:33;;;;;;;56.73;26.80;;;;;;;4.90;100.00;100067.03;5053086;28;20624;-73
2020/12/13 04:43:01;;;;;;;60.90;26.30;;;;;;;4.84;100.00;100076.91;5072375;28;20206;-72
2020/12/13 04:45:27;;;;;;;49.30;25.23;;;;;;;4.77;100.00;100084.34;5054996;28;20218;-72
2020/12/13 04:48:07;;;;;;;56.57;26.80;;;;;;;4.75;100.00;100088.34;5055949;28;20186;-73
2020/12/13 04:50:37;;;;;;;53.03;25.33;;;;;;;4.85;100.00;100085.78;5096995;28;20271;-73
2020/12/13 04:53:09;;;;;;;61.37;26.80;;;;;;;4.86;100.00;100087.44;5077681;28;20654;-71
2020/12/13 04:55:57;;;;;;;55.60;26.57;;;;;;;4.96;100.00;100082.16;5072997;28;20318;-72
2020/12/13 04:58:27;;;;;;;61.80;26.57;;;;;;;4.81;100.00;100085.47;5090985;28;20593;-72
2020/12/13 05:00:59;;;;;;;54.17;25.50;;;;;;;4.78;100.00;100090.53;5099596;28;20219;-73
2020/12/13 05:03:28;;;;;;;61.53;26.57;;;;;;;4.89;100.00;100092.28;5050412;28;20203;-71
2020/12/13 05:06:03;;;;;;;58.97;25.97;;;;;;;4.78;100.00;100103.97;5049540;28;20212;-71
2020/12/13 05:08:29;;;;;;;60.63;25.93;;;;;;;4.88;100.00;100106.81;5050369;28;20542;-73
2020/12/13 05:10:57;;;;;;;54.33;24.97;;;;;;;4.87;100.00;100099.81;5033212;28;20246;-73
2020/12/13 05:13:23;;;;;;;54.57;25.63;;;;;;;4.96;100.00;100103.69;5050525;28;20186;-72
2020/12/13 05:15:48;;;;;;;59.23;27.23;;;;;;;5.06;100.00;100100.06;5046847;28;20217;-71
2020/12/13 05:18:17;;;;;;;60.23;26.53;;;;;;;5.02;100.00;100098.94;5081467;28;20291;-72
2020/12/13 05:20:43;;;;;;;57.87;27.00;;;;;;;5.00;100.00;100098.38;5072811;28;20218;-73
2020/12/13 05:23:11;;;;;;;61.37;27.23;;;;;;;4.98;100.00;100097.81;5073033;28;20218;-73
2020/12/13 05:25:38;;;;;;;57.47;25.43;;;;;;;4.97;100.00;100090.00;5072704;28;20250;-73
2020/12/13 05:28:05;;;;;;;59.63;26.20;;;;;;;4.97;100.00;100084.63;5073260;28;20639;-73
2020/12/13 05:30:40;;;;;;;55.97;25.93;;;;;;;5.00;100.00;100095.69;5101962;28;20227;-72
2020/12/13 05:33:17;;;;;;;58.47;25.03;;;;;;;4.95;100.00;100096.69;5069783;28;20177;-73
2020/12/13 05:35:43;;;;;;;53.03;25.00;;;;;;;4.99;100.00;100104.81;5052296;28;20218;-73
2020/12/13 05:38:13;;;;;;;55.57;24.87;;;;;;;4.88;100.00;100091.50;5036542;28;20637;-73
2020/12/13 05:40:39;;;;;;;56.43;25.50;;;;;;;4.98;100.00;100095.13;5052308;28;20254;-71
2020/12/13 05:43:13;;;;;;;56.97;25.67;;;;;;;4.82;100.00;100097.06;5069679;28;20222;-71
2020/12/13 05:48:46;;;;;;;46.57;23.47;;;;;;;4.73;100.00;100109.31;5065815;28;20234;-71
2020/12/13 05:51:19;;;;;;;56.80;23.83;;;;;;;4.76;100.00;100112.31;5089200;28;20259;-73
2020/12/13 05:53:45;;;;;;;51.37;23.50;;;;;;;4.70;100.00;100110.59;5075184;28;20171;-72
2020/12/13 05:56:13;;;;;;;51.30;23.80;;;;;;;4.69;100.00;100113.56;5052168;28;20222;-73
2020/12/13 05:58:39;;;;;;;51.63;23.57;;;;;;;4.77;100.00;100113.13;5052812;28;20210;-72
2020/12/13 06:01:07;;;;;;;48.53;23.37;;;;;;;4.71;100.00;100123.00;5053185;28;20273;-73
2020/12/13 06:03:36;;;;;;;52.33;24.73;;;;;;;4.81;100.00;100123.13;5035960;28;20214;-72
2020/12/13 06:06:11;;;;;;;46.63;23.47;;;;;;;4.72;100.00;100118.44;5052168;28;20237;-72
2020/12/13 06:09:00;;;;;;;48.37;24.27;;;;;;;4.77;100.00;100119.31;5022669;28;20566;-72
2020/12/13 06:11:36;;;;;;;48.67;23.47;;;;;;;4.81;100.00;100122.31;5033028;28;20688;-72
2020/12/13 06:14:26;;;;;;;52.53;23.83;;;;;;;4.80;100.00;100120.69;5033607;28;20175;-73
2020/12/13 06:17:00;;;;;;;47.67;22.73;;;;;;;4.77;100.00;100130.06;5050796;28;20293;-73
2020/12/13 06:19:27;;;;;;;51.30;24.00;;;;;;;4.93;100.00;100137.31;5056339;28;20214;-73
2020/12/13 06:21:55;;;;;;;52.43;23.93;;;;;;;4.90;100.00;100139.66;5059472;28;20223;-73
2020/12/13 06:24:21;;;;;;;53.23;24.03;;;;;;;4.98;100.00;100140.88;5060085;28;20223;-73
2020/12/13 06:26:47;;;;;;;54.20;22.90;;;;;;;4.90;100.00;100148.53;5052092;28;20262;-72
2020/12/13 06:29:13;;;;;;;49.97;22.33;;;;;;;4.75;100.00;100150.22;5018564;28;20207;-73
2020/12/13 06:31:40;;;;;;;53.07;22.93;;;;;;;4.82;100.00;100142.78;5039078;28;20242;-72
2020/12/13 06:34:06;;;;;;;51.33;23.23;;;;;;;4.85;100.00;100150.34;5042536;28;20601;-73
2020/12/13 06:36:35;;;;;;;49.43;23.07;;;;;;;4.73;100.00;100153.16;5074436;28;20227;-73
2020/12/13 06:39:05;;;;;;;45.17;22.07;;;;;;;4.69;100.00;100146.63;5039828;28;20207;-73
2020/12/13 06:41:33;;;;;;;52.43;23.40;;;;;;;4.86;100.00;100146.63;5071308;28;20280;-72
2020/12/13 06:44:04;;;;;;;50.07;23.40;;;;;;;5.07;100.00;100154.69;5038055;28;20530;-72
2020/12/13 06:46:30;;;;;;;47.43;22.97;;;;;;;5.09;100.00;100155.25;5077831;28;20219;-72
2020/12/13 06:48:56;;;;;;;52.53;23.73;;;;;;;5.00;100.00;100162.97;5052025;28;20213;-73
2020/12/13 06:51:29;;;;;;;52.03;23.47;;;;;;;5.05;100.00;100157.66;5089099;28;20671;-73
2020/12/13 06:56:53;;;;;;;51.83;23.17;;;;;;;4.92;100.00;100164.44;5302067;23;20251;-74
2020/12/13 06:59:19;;;;;;;51.47;22.97;;;;;;;4.93;100.00;100172.28;5012176;28;20681;-74
2020/12/13 07:01:46;;;;;;;53.90;24.17;;;;;;;5.01;100.00;100172.66;5027939;28;20773;-73
2020/12/13 07:04:24;;;;;;;49.93;23.83;;;;;;;5.08;100.00;100164.41;4998823;28;20749;-75
2020/12/13 07:09:25;;;;;;;53.17;24.50;;;;;;;5.09;100.00;100180.31;4995573;28;20248;-72
2020/12/13 07:11:54;;;;;;;52.37;24.93;;;;;;;5.09;100.00;100174.94;4995853;28;20227;-72
2020/12/13 07:14:24;;;;;;;57.00;25.33;;;;;;;5.04;100.00;100188.31;4995270;28;20197;-72
2020/12/13 07:16:59;;;;;;;53.33;26.27;;;;;;;5.18;100.00;100194.97;4981364;28;20208;-74
2020/12/13 07:19:24;;;;;;;54.30;23.97;;;;;;;5.17;100.00;100185.25;4989759;28;20246;-73
2020/12/13 07:21:50;;;;;;;58.70;24.57;;;;;;;5.08;100.00;100188.63;4996004;28;20224;-74
2020/12/13 07:24:18;;;;;;;48.93;23.60;;;;;;;5.03;100.00;100188.53;4980418;28;20216;-75
2020/12/13 07:26:43;;;;;;;53.33;23.77;;;;;;;5.15;100.00;100195.47;5007254;28;20621;-75
2020/12/13 07:29:15;;;;;;;52.27;22.57;;;;;;;5.14;100.00;100193.00;5000708;28;20200;-74
2020/12/13 07:31:43;;;;;;;50.67;24.27;;;;;;;5.21;100.00;100191.75;5002290;28;20330;-72
2020/12/13 07:34:11;;;;;;;49.73;23.33;;;;;;;5.21;100.00;100199.84;4983905;28;20185;-73
2020/12/13 07:36:39;;;;;;;54.13;23.63;;;;;;;5.19;100.00;100190.41;4983121;28;20278;-73
2020/12/13 07:39:08;;;;;;;51.50;24.33;;;;;;;5.18;100.00;100196.81;5001084;28;20242;-73
2020/12/13 07:41:33;;;;;;;54.30;24.10;;;;;;;5.09;100.00;100196.47;4998710;28;20686;-73
2020/12/13 07:44:20;;;;;;;51.83;23.60;;;;;;;5.12;100.00;100198.63;5015981;28;20262;-74
2020/12/13 07:46:48;;;;;;;55.30;24.53;;;;;;;5.14;100.00;100203.78;4999573;28;20224;-74
2020/12/13 07:49:15;;;;;;;56.17;24.30;;;;;;;5.18;100.00;100212.97;4999629;28;20201;-74
2020/12/13 07:51:44;;;;;;;52.90;24.30;;;;;;;5.20;100.00;100214.38;5015531;28;20270;-74
2020/12/13 07:54:13;;;;;;;55.50;24.63;;;;;;;5.15;100.00;100216.19;4983523;28;20729;-74
2020/12/13 07:56:40;;;;;;;54.20;24.30;;;;;;;5.02;100.00;100221.91;5016283;28;20716;-74
2020/12/13 07:59:16;;;;;;;59.87;26.40;;;;;;;5.15;100.00;100222.38;4999372;28;20677;-74
2020/12/13 08:01:43;;;;;;;44.70;22.80;;;;;;;5.06;100.00;100223.84;5000205;28;20666;-74
2020/12/13 08:04:08;;;;;;;49.77;22.67;;;;;;;5.09;100.00;100227.91;5015562;28;20603;-74
2020/12/13 08:06:39;;;;;;;46.30;23.17;;;;;;;5.09;100.00;100231.44;5014845;28;20228;-73
2020/12/13 08:09:12;;;;;;;49.23;21.90;;;;;;;5.12;100.00;100238.19;5014111;28;20236;-73
2020/12/13 08:11:41;;;;;;;43.73;22.07;;;;;;;5.11;100.00;100231.16;5010509;28;21554;-74
2020/12/13 08:14:11;;;;;;;46.70;21.97;;;;;;;5.03;100.00;100243.16;5014433;28;20259;-73
2020/12/13 08:16:36;;;;;;;44.90;21.83;;;;;;;5.14;100.00;100241.44;5014514;28;20223;-74
2020/12/13 08:19:09;;;;;;;43.33;21.83;;;;;;;5.14;100.00;100242.25;4999023;28;20219;-73
2020/12/13 08:21:45;;;;;;;44.43;20.20;;;;;;;5.04;100.00;100250.19;4996124;28;20302;-71
2020/12/13 08:24:12;;;;;;;44.03;20.67;;;;;;;5.11;100.00;100252.69;4988949;28;20201;-73
2020/12/13 08:26:41;;;;;;;47.27;21.07;;;;;;;5.01;100.00;100253.38;5013705;28;20220;-71
2020/12/13 08:29:06;;;;;;;43.07;20.23;;;;;;;5.25;100.00;100259.38;4996255;28;20201;-72
2020/12/13 08:31:32;;;;;;;45.60;20.33;;;;;;;5.23;100.00;100261.50;4994784;28;20291;-72
2020/12/13 08:34:05;;;;;;;48.37;20.63;;;;;;;5.31;100.00;100253.84;5012211;28;20704;-73
2020/12/13 08:36:31;;;;;;;43.30;20.33;;;;;;;5.23;100.00;100267.69;5026688;28;20726;-73
2020/12/13 08:38:59;;;;;;;45.07;20.90;;;;;;;5.30;100.00;100273.72;5011787;28;20211;-72
2020/12/13 08:41:25;;;;;;;48.33;22.47;;;;;;;5.30;100.00;100278.31;5032407;28;20228;-72
2020/12/13 08:43:51;;;;;;;41.17;19.83;;;;;;;5.23;100.00;100277.66;5017067;28;20767;-73
2020/12/13 08:46:32;;;;;;;40.83;20.10;;;;;;;5.14;100.00;100277.25;4983290;28;20282;-72
2020/12/13 08:48:58;;;;;;;38.67;19.37;;;;;;;5.22;100.00;100282.22;4999766;28;20219;-72
2020/12/13 08:51:26;;;;;;;37.53;19.13;;;;;;;5.24;100.00;100273.88;5012552;28;20212;-72
2020/12/13 08:54:02;;;;;;;39.53;18.63;;;;;;;5.27;100.00;100276.91;4985305;28;20185;-72
2020/12/13 08:56:35;;;;;;;37.23;17.50;;;;;;;5.27;100.00;100282.28;5009797;28;20246;-73
2020/12/13 08:59:05;;;;;;;36.30;17.90;;;;;;;5.28;100.00;100285.81;4987862;28;20243;-74
2020/12/13 09:01:38;;;;;;;35.67;17.90;;;;;;;5.35;100.00;100284.56;4978396;28;20225;-73
2020/12/13 09:04:22;;;;;;;33.17;17.50;;;;;;;5.43;100.00;100289.53;4999214;28;20209;-73
2020/12/13 09:06:58;;;;;;;37.07;17.33;;;;;;;5.37;100.00;100298.59;5018043;28;20216;-73
2020/12/13 09:09:28;;;;;;;36.03;17.37;;;;;;;5.38;100.00;100297.53;5013516;28;20212;-73
2020/12/13 09:11:58;;;;;;;32.93;16.70;;;;;;;5.31;100.00;100299.59;5008643;28;20300;-73
2020/12/13 09:14:25;;;;;;;29.47;16.10;;;;;;;5.38;100.00;100295.66;4991388;28;20216;-73
2020/12/13 09:16:53;;;;;;;38.23;18.40;;;;;;;5.33;100.00;100312.78;4975212;28;20259;-72
2020/12/13 09:19:19;;;;;;;30.03;15.50;;;;;;;5.40;100.00;100308.84;5008482;28;20216;-73
2020/12/13 09:21:44;;;;;;;30.57;15.77;;;;;;;5.43;100.00;100311.06;5008339;28;20221;-73
2020/12/13 09:24:11;;;;;;;29.43;16.03;;;;;;;5.36;100.00;100316.63;5012970;28;20672;-73
2020/12/13 09:26:39;;;;;;;29.37;15.50;;;;;;;5.39;100.00;100320.72;5012898;28;20219;-73
2020/12/13 09:29:10;;;;;;;29.10;15.27;;;;;;;5.49;100.00;100315.47;4994696;28;20576;-72
2020/12/13 09:31:35;;;;;;;30.60;15.57;;;;;;;5.45;100.00;100323.22;4986529;28;20286;-72
2020/12/13 09:34:01;;;;;;;37.00;16.60;;;;;;;5.40;100.00;100316.94;4986132;28;20206;-73
2020/12/13 09:36:27;;;;;;;30.70;15.97;;;;;;;5.46;100.00;100324.06;4976388;28;20224;-73
2020/12/13 09:38:55;;;;;;;28.00;14.50;;;;;;;5.39;100.00;100329.59;4991972;28;20632;-73
2020/12/13 09:41:21;;;;;;;28.27;14.83;;;;;;;5.48;100.00;100330.00;5025369;28;20216;-73
2020/12/13 09:43:47;;;;;;;31.37;15.00;;;;;;;5.49;100.00;100331.63;4988455;28;20233;-71
2020/12/13 09:46:16;;;;;;;29.43;15.13;;;;;;;5.46;100.00;100337.50;5020720;28;20240;-72
2020/12/13 09:48:42;;;;;;;28.67;14.60;;;;;;;5.41;100.00;100334.75;4995445;28;20629;-72
2020/12/13 09:51:14;;;;;;;26.97;14.03;;;;;;;5.41;100.00;100323.97;4992538;28;20304;-72
2020/12/13 09:53:40;;;;;;;33.87;14.73;;;;;;;5.48;100.00;100324.63;5014530;28;20172;-73
2020/12/13 09:56:06;;;;;;;27.00;14.33;;;;;;;5.47;100.00;100333.75;4976626;28;20239;-73
2020/12/13 09:58:31;;;;;;;26.10;14.23;;;;;;;5.57;100.00;100333.91;5010148;28;20192;-72
2020/12/13 10:00:59;;;;;;;24.13;13.97;;;;;;;5.69;100.00;100329.22;5005964;28;20216;-73
2020/12/13 10:03:27;;;;;;;24.77;14.03;;;;;;;5.68;100.00;100330.25;4997523;28;20350;-73
2020/12/13 10:11:15;;;;;;;25.27;12.73;;;;;;;5.47;100.00;100333.75;5009707;28;20226;-72
2020/12/13 10:13:40;;;;;;;20.80;12.77;;;;;;;5.63;100.00;100322.94;5009219;28;20173;-73
2020/12/13 10:16:14;;;;;;;20.50;12.50;;;;;;;5.66;100.00;100327.84;5007976;28;20212;-73
2020/12/13 10:18:40;;;;;;;21.70;13.53;;;;;;;5.74;100.00;100325.56;4977051;28;20201;-73
2020/12/13 10:21:08;;;;;;;21.67;12.60;;;;;;;5.81;100.00;100333.47;4994735;28;20631;-73
2020/12/13 10:23:34;;;;;;;24.67;12.67;;;;;;;5.87;100.00;100325.19;5021794;28;20200;-73
2020/12/13 10:26:02;;;;;;;20.87;11.80;;;;;;;5.76;100.00;100328.00;4993155;28;20716;-73
2020/12/13 10:28:29;;;;;;;19.10;11.83;;;;;;;5.69;100.00;100342.69;5020556;28;20661;-73
2020/12/13 10:30:58;;;;;;;18.20;11.60;;;;;;;5.80;100.00;100343.41;5005000;28;20217;-73
2020/12/13 10:33:24;;;;;;;19.17;12.37;;;;;;;5.74;100.00;100340.09;5008929;28;20185;-73
2020/12/13 10:35:50;;;;;;;18.53;11.63;;;;;;;5.65;100.00;100336.16;5013618;28;20216;-73
2020/12/13 10:38:15;;;;;;;19.77;12.07;;;;;;;5.83;100.00;100332.13;5005229;28;20185;-75
2020/12/13 10:40:41;;;;;;;20.37;12.30;;;;;;;6.06;100.00;100339.97;4994949;28;20591;-74
2020/12/13 10:43:09;;;;;;;18.40;11.67;;;;;;;6.21;100.00;100330.22;4990447;28;20192;-74
2020/12/13 10:45:35;;;;;;;19.80;11.90;;;;;;;6.26;100.00;100334.81;5009896;28;20762;-74
2020/12/13 10:48:04;;;;;;;18.30;11.93;;;;;;;6.44;100.00;100334.50;5011928;28;20181;-74
2020/12/13 10:50:37;;;;;;;16.23;11.93;;;;;;;6.35;100.00;100344.09;5021332;28;20583;-74
2020/12/13 10:53:06;;;;;;;21.63;12.17;;;;;;;6.51;100.00;100336.75;4982308;28;20658;-75
2020/12/13 10:55:32;;;;;;;18.30;12.17;;;;;;;6.54;100.00;100338.94;5019612;28;20242;-74
2020/12/13 10:57:57;;;;;;;18.60;11.80;;;;;;;6.36;100.00;100340.34;4981497;28;20584;-75
2020/12/13 11:00:24;;;;;;;20.97;12.77;;;;;;;6.45;100.00;100339.66;4977410;28;20582;-74
2020/12/13 11:02:52;;;;;;;19.77;12.33;;;;;;;6.35;100.00;100333.31;4988697;28;20235;-75
2020/12/13 11:05:18;;;;;;;22.37;13.20;;;;;;;6.44;100.00;100334.50;4989992;28;20219;-75
2020/12/13 11:07:48;;;;;;;19.97;12.50;;;;;;;6.58;100.00;100340.06;5008503;28;20219;-75
2020/12/13 11:10:14;;;;;;;22.43;12.47;;;;;;;6.63;100.00;100336.59;5023592;28;20578;-75
2020/12/13 11:12:40;;;;;;;18.17;12.60;;;;;;;6.47;100.00;100336.72;5028433;28;20196;-75
2020/12/13 11:15:08;;;;;;;19.43;12.93;;;;;;;6.54;100.00;100344.34;5018680;28;20208;-76
2020/12/13 11:17:39;;;;;;;20.23;12.37;;;;;;;6.42;100.00;100345.53;5031189;28;20169;-74
2020/12/13 11:20:07;;;;;;;24.03;12.53;;;;;;;6.30;100.00;100341.34;5029407;28;20258;-75
2020/12/13 11:22:36;;;;;;;19.90;12.50;;;;;;;6.48;100.00;100338.31;5011962;28;20181;-76
2020/12/13 11:25:10;;;;;;;19.33;11.83;;;;;;;6.57;100.00;100337.59;5024616;28;20185;-77
2020/12/13 11:27:38;;;;;;;21.07;12.03;;;;;;;6.43;100.00;100335.56;5005193;28;20207;-74
2020/12/13 11:30:06;;;;;;;18.47;12.07;;;;;;;6.54;100.00;100333.53;5008303;28;20196;-78
2020/12/13 11:32:32;;;;;;;21.50;12.50;;;;;;;6.62;100.00;100335.78;5002443;28;20993;-74